sensor_id;sensor_type;location;lat;lon;timestamp;temperature;humidity
39825;DHT22;25503;52.532;13.640;2023-05-20T00:00:40;11.00;99.90
39825;DHT22;25503;52.532;13.640;2023-05-20T00:03:05;10.90;99.90
39825;DHT22;25503;52.532;13.640;2023-05-20T00:05:31;10.90;99.90
39825;DHT22;25503;52.532;13.640;2023-05-20T00:07:56;10.90;99.90
39825;DHT22;25503;52.532;13.640;2023-05-20T00:10:22;10.80;99.90
39825;DHT22;25503;52.532;13.640;2023-05-20T00:12:48;10.70;99.90
39825;DHT22;25503;52.532;13.640;2023-05-20T00:15:13;10.70;99.90
39825;DHT22;25503;52.532;13.640;2023-05-20T00:17:39;10.70;99.90
39825;DHT22;25503;52.532;13.640;2023-05-20T00:20:05;10.70;99.90
39825;DHT22;25503;52.532;13.640;2023-05-20T00:22:31;10.80;99.90
39825;DHT22;25503;52.532;13.640;2023-05-20T00:24:57;10.80;99.90
39825;DHT22;25503;52.532;13.640;2023-05-20T00:27:22;10.80;99.90
39825;DHT22;25503;52.532;13.640;2023-05-20T00:29:48;10.80;99.90
39825;DHT22;25503;52.532;13.640;2023-05-20T00:32:14;10.80;99.90
39825;DHT22;25503;52.532;13.640;2023-05-20T00:34:41;10.70;99.90
39825;DHT22;25503;52.532;13.640;2023-05-20T00:37:07;10.70;99.90
39825;DHT22;25503;52.532;13.640;2023-05-20T00:39:33;10.60;99.90
39825;DHT22;25503;52.532;13.640;2023-05-20T00:41:58;10.50;99.90
39825;DHT22;25503;52.532;13.640;2023-05-20T00:44:26;10.40;99.90
39825;DHT22;25503;52.532;13.640;2023-05-20T00:46:52;10.40;99.90
39825;DHT22;25503;52.532;13.640;2023-05-20T00:49:18;10.30;99.90
39825;DHT22;25503;52.532;13.640;2023-05-20T00:51:44;10.20;99.90
39825;DHT22;25503;52.532;13.640;2023-05-20T00:54:11;10.20;99.90
39825;DHT22;25503;52.532;13.640;2023-05-20T00:56:37;10.10;99.90
39825;DHT22;25503;52.532;13.640;2023-05-20T00:59:03;10.10;99.90
39825;DHT22;25503;52.532;13.640;2023-05-20T01:01:28;10.00;99.90
39825;DHT22;25503;52.532;13.640;2023-05-20T01:03:54;10.00;99.90
39825;DHT22;25503;52.532;13.640;2023-05-20T01:06:20;9.90;99.90
39825;DHT22;25503;52.532;13.640;2023-05-20T01:08:45;9.90;99.90
39825;DHT22;25503;52.532;13.640;2023-05-20T01:11:18;9.80;99.90
39825;DHT22;25503;52.532;13.640;2023-05-20T01:13:50;9.80;99.90
39825;DHT22;25503;52.532;13.640;2023-05-20T01:16:19;9.80;99.90
39825;DHT22;25503;52.532;13.640;2023-05-20T01:18:48;9.80;99.90
39825;DHT22;25503;52.532;13.640;2023-05-20T01:21:14;9.80;99.90
39825;DHT22;25503;52.532;13.640;2023-05-20T01:23:41;9.80;99.90
39825;DHT22;25503;52.532;13.640;2023-05-20T01:26:08;9.80;99.90
39825;DHT22;25503;52.532;13.640;2023-05-20T01:28:36;9.80;99.90
39825;DHT22;25503;52.532;13.640;2023-05-20T01:31:04;9.80;99.90
39825;DHT22;25503;52.532;13.640;2023-05-20T01:33:33;9.80;99.90
39825;DHT22;25503;52.532;13.640;2023-05-20T01:36:01;9.80;99.90
39825;DHT22;25503;52.532;13.640;2023-05-20T01:38:27;9.80;99.90
39825;DHT22;25503;52.532;13.640;2023-05-20T01:40:54;9.80;99.90
39825;DHT22;25503;52.532;13.640;2023-05-20T01:43:21;9.70;99.90
39825;DHT22;25503;52.532;13.640;2023-05-20T01:45:47;9.70;99.90
39825;DHT22;25503;52.532;13.640;2023-05-20T01:48:13;9.70;99.90
39825;DHT22;25503;52.532;13.640;2023-05-20T01:50:39;9.70;99.90
39825;DHT22;25503;52.532;13.640;2023-05-20T01:53:05;9.70;99.90
39825;DHT22;25503;52.532;13.640;2023-05-20T01:55:34;9.70;99.90
39825;DHT22;25503;52.532;13.640;2023-05-20T01:57:59;9.70;99.90
39825;DHT22;25503;52.532;13.640;2023-05-20T02:00:25;9.60;99.90
39825;DHT22;25503;52.532;13.640;2023-05-20T02:02:51;9.60;99.90
39825;DHT22;25503;52.532;13.640;2023-05-20T02:05:16;9.60;99.90
39825;DHT22;25503;52.532;13.640;2023-05-20T02:07:42;9.60;99.90
39825;DHT22;25503;52.532;13.640;2023-05-20T02:10:08;9.60;99.90
39825;DHT22;25503;52.532;13.640;2023-05-20T02:12:33;9.50;99.90
39825;DHT22;25503;52.532;13.640;2023-05-20T02:14:59;9.60;99.90
39825;DHT22;25503;52.532;13.640;2023-05-20T02:17:25;9.50;99.90
39825;DHT22;25503;52.532;13.640;2023-05-20T02:19:51;9.50;99.90
39825;DHT22;25503;52.532;13.640;2023-05-20T02:22:17;9.50;99.90
39825;DHT22;25503;52.532;13.640;2023-05-20T02:24:43;9.50;99.90
39825;DHT22;25503;52.532;13.640;2023-05-20T02:27:08;9.50;99.90
39825;DHT22;25503;52.532;13.640;2023-05-20T02:29:34;9.50;99.90
39825;DHT22;25503;52.532;13.640;2023-05-20T02:32:00;9.60;99.90
39825;DHT22;25503;52.532;13.640;2023-05-20T02:34:26;9.50;99.90
39825;DHT22;25503;52.532;13.640;2023-05-20T02:36:52;9.60;99.90
39825;DHT22;25503;52.532;13.640;2023-05-20T02:39:17;9.60;99.90
39825;DHT22;25503;52.532;13.640;2023-05-20T02:41:43;9.60;99.90
39825;DHT22;25503;52.532;13.640;2023-05-20T02:44:09;9.60;99.90
39825;DHT22;25503;52.532;13.640;2023-05-20T02:46:34;9.60;99.90
39825;DHT22;25503;52.532;13.640;2023-05-20T02:49:00;9.60;99.90
39825;DHT22;25503;52.532;13.640;2023-05-20T02:51:25;9.60;99.90
39825;DHT22;25503;52.532;13.640;2023-05-20T02:53:51;9.60;99.90
39825;DHT22;25503;52.532;13.640;2023-05-20T02:56:17;9.60;99.90
39825;DHT22;25503;52.532;13.640;2023-05-20T02:58:46;9.70;99.90
39825;DHT22;25503;52.532;13.640;2023-05-20T03:01:11;9.70;99.90
39825;DHT22;25503;52.532;13.640;2023-05-20T03:03:37;9.70;99.90
39825;DHT22;25503;52.532;13.640;2023-05-20T03:06:03;9.70;99.90
39825;DHT22;25503;52.532;13.640;2023-05-20T03:08:28;9.70;99.90
39825;DHT22;25503;52.532;13.640;2023-05-20T03:10:54;9.80;99.90
39825;DHT22;25503;52.532;13.640;2023-05-20T03:13:20;9.80;99.90
39825;DHT22;25503;52.532;13.640;2023-05-20T03:15:45;9.80;99.90
39825;DHT22;25503;52.532;13.640;2023-05-20T03:18:11;9.80;99.90
39825;DHT22;25503;52.532;13.640;2023-05-20T03:20:38;9.80;99.90
39825;DHT22;25503;52.532;13.640;2023-05-20T03:23:06;9.80;99.90
39825;DHT22;25503;52.532;13.640;2023-05-20T03:25:32;9.90;99.90
39825;DHT22;25503;52.532;13.640;2023-05-20T03:27:57;9.90;99.90
39825;DHT22;25503;52.532;13.640;2023-05-20T03:30:24;9.90;99.90
39825;DHT22;25503;52.532;13.640;2023-05-20T03:32:50;9.90;99.90
39825;DHT22;25503;52.532;13.640;2023-05-20T03:35:16;10.00;99.90
39825;DHT22;25503;52.532;13.640;2023-05-20T03:37:42;10.00;99.90
39825;DHT22;25503;52.532;13.640;2023-05-20T03:40:08;10.00;99.90
39825;DHT22;25503;52.532;13.640;2023-05-20T03:42:35;10.00;99.90
39825;DHT22;25503;52.532;13.640;2023-05-20T03:45:01;10.00;99.90
39825;DHT22;25503;52.532;13.640;2023-05-20T03:47:27;10.00;99.90
39825;DHT22;25503;52.532;13.640;2023-05-20T03:49:52;10.00;99.90
39825;DHT22;25503;52.532;13.640;2023-05-20T03:52:18;10.10;99.90
39825;DHT22;25503;52.532;13.640;2023-05-20T03:54:44;10.10;99.90
39825;DHT22;25503;52.532;13.640;2023-05-20T03:57:09;10.10;99.90
39825;DHT22;25503;52.532;13.640;2023-05-20T03:59:36;10.10;99.90
39825;DHT22;25503;52.532;13.640;2023-05-20T04:02:02;10.10;99.90
39825;DHT22;25503;52.532;13.640;2023-05-20T04:04:28;10.20;99.90
39825;DHT22;25503;52.532;13.640;2023-05-20T04:06:54;10.20;99.90
39825;DHT22;25503;52.532;13.640;2023-05-20T04:09:21;10.20;99.90
39825;DHT22;25503;52.532;13.640;2023-05-20T04:11:47;10.20;99.90
39825;DHT22;25503;52.532;13.640;2023-05-20T04:14:13;10.20;99.90
39825;DHT22;25503;52.532;13.640;2023-05-20T04:16:39;10.20;99.90
39825;DHT22;25503;52.532;13.640;2023-05-20T04:19:05;10.30;99.90
39825;DHT22;25503;52.532;13.640;2023-05-20T04:21:31;10.30;99.90
39825;DHT22;25503;52.532;13.640;2023-05-20T04:23:57;10.30;99.90
39825;DHT22;25503;52.532;13.640;2023-05-20T04:26:23;10.30;99.90
39825;DHT22;25503;52.532;13.640;2023-05-20T04:28:48;10.30;99.90
39825;DHT22;25503;52.532;13.640;2023-05-20T04:31:14;10.40;99.90
39825;DHT22;25503;52.532;13.640;2023-05-20T04:33:40;10.40;99.90
39825;DHT22;25503;52.532;13.640;2023-05-20T04:36:08;10.40;99.90
39825;DHT22;25503;52.532;13.640;2023-05-20T04:38:34;10.50;99.90
39825;DHT22;25503;52.532;13.640;2023-05-20T04:41:00;10.50;99.90
39825;DHT22;25503;52.532;13.640;2023-05-20T04:43:27;10.60;99.90
39825;DHT22;25503;52.532;13.640;2023-05-20T04:45:55;10.60;99.90
39825;DHT22;25503;52.532;13.640;2023-05-20T04:48:21;10.60;99.90
39825;DHT22;25503;52.532;13.640;2023-05-20T04:50:47;10.70;99.90
39825;DHT22;25503;52.532;13.640;2023-05-20T04:53:22;10.80;99.90
39825;DHT22;25503;52.532;13.640;2023-05-20T04:55:53;10.80;99.90
39825;DHT22;25503;52.532;13.640;2023-05-20T04:58:21;10.80;99.90
39825;DHT22;25503;52.532;13.640;2023-05-20T05:00:49;10.90;99.90
39825;DHT22;25503;52.532;13.640;2023-05-20T05:03:16;11.00;99.90
39825;DHT22;25503;52.532;13.640;2023-05-20T05:05:42;11.00;99.90
39825;DHT22;25503;52.532;13.640;2023-05-20T05:08:08;11.00;99.90
39825;DHT22;25503;52.532;13.640;2023-05-20T05:10:36;11.10;99.90
39825;DHT22;25503;52.532;13.640;2023-05-20T05:13:02;11.10;99.90
39825;DHT22;25503;52.532;13.640;2023-05-20T05:15:28;11.10;99.90
39825;DHT22;25503;52.532;13.640;2023-05-20T05:17:53;11.10;99.90
39825;DHT22;25503;52.532;13.640;2023-05-20T05:20:20;11.20;99.90
39825;DHT22;25503;52.532;13.640;2023-05-20T05:22:46;11.20;99.90
39825;DHT22;25503;52.532;13.640;2023-05-20T05:25:12;11.20;99.90
39825;DHT22;25503;52.532;13.640;2023-05-20T05:27:38;11.30;99.90
39825;DHT22;25503;52.532;13.640;2023-05-20T05:30:05;11.30;99.90
39825;DHT22;25503;52.532;13.640;2023-05-20T05:32:31;11.30;99.90
39825;DHT22;25503;52.532;13.640;2023-05-20T05:34:57;11.40;99.90
39825;DHT22;25503;52.532;13.640;2023-05-20T05:37:23;11.40;99.90
39825;DHT22;25503;52.532;13.640;2023-05-20T05:39:48;11.50;99.90
39825;DHT22;25503;52.532;13.640;2023-05-20T05:42:14;11.50;99.90
39825;DHT22;25503;52.532;13.640;2023-05-20T05:44:40;11.50;99.90
39825;DHT22;25503;52.532;13.640;2023-05-20T05:47:06;11.60;99.90
39825;DHT22;25503;52.532;13.640;2023-05-20T05:49:32;11.60;99.90
39825;DHT22;25503;52.532;13.640;2023-05-20T05:51:58;11.70;99.90
39825;DHT22;25503;52.532;13.640;2023-05-20T05:54:24;11.70;99.90
39825;DHT22;25503;52.532;13.640;2023-05-20T05:56:53;11.70;99.90
39825;DHT22;25503;52.532;13.640;2023-05-20T05:59:19;11.70;99.90
39825;DHT22;25503;52.532;13.640;2023-05-20T06:01:45;11.80;99.90
39825;DHT22;25503;52.532;13.640;2023-05-20T06:04:10;11.70;99.90
39825;DHT22;25503;52.532;13.640;2023-05-20T06:06:36;11.80;99.90
39825;DHT22;25503;52.532;13.640;2023-05-20T06:09:02;11.80;99.90
39825;DHT22;25503;52.532;13.640;2023-05-20T06:11:27;11.90;99.90
39825;DHT22;25503;52.532;13.640;2023-05-20T06:13:53;11.90;99.90
39825;DHT22;25503;52.532;13.640;2023-05-20T06:16:19;11.90;99.90
39825;DHT22;25503;52.532;13.640;2023-05-20T06:18:45;11.90;99.90
39825;DHT22;25503;52.532;13.640;2023-05-20T06:21:11;12.00;99.90
39825;DHT22;25503;52.532;13.640;2023-05-20T06:23:36;12.00;99.90
39825;DHT22;25503;52.532;13.640;2023-05-20T06:26:02;12.00;99.90
39825;DHT22;25503;52.532;13.640;2023-05-20T06:28:28;12.10;99.90
39825;DHT22;25503;52.532;13.640;2023-05-20T06:30:54;12.10;99.90
39825;DHT22;25503;52.532;13.640;2023-05-20T06:33:24;12.10;99.90
39825;DHT22;25503;52.532;13.640;2023-05-20T06:35:59;12.20;99.90
39825;DHT22;25503;52.532;13.640;2023-05-20T06:38:26;12.20;99.90
39825;DHT22;25503;52.532;13.640;2023-05-20T06:40:51;12.20;99.90
39825;DHT22;25503;52.532;13.640;2023-05-20T06:43:17;12.30;99.90
39825;DHT22;25503;52.532;13.640;2023-05-20T06:45:43;12.30;99.90
39825;DHT22;25503;52.532;13.640;2023-05-20T06:48:09;12.30;99.90
39825;DHT22;25503;52.532;13.640;2023-05-20T06:50:35;12.30;99.90
39825;DHT22;25503;52.532;13.640;2023-05-20T06:53:01;12.30;99.90
39825;DHT22;25503;52.532;13.640;2023-05-20T06:55:26;12.40;99.90
39825;DHT22;25503;52.532;13.640;2023-05-20T06:57:52;12.40;99.90
39825;DHT22;25503;52.532;13.640;2023-05-20T07:00:18;12.50;99.90
39825;DHT22;25503;52.532;13.640;2023-05-20T07:02:44;12.50;99.90
39825;DHT22;25503;52.532;13.640;2023-05-20T07:05:10;12.60;99.90
39825;DHT22;25503;52.532;13.640;2023-05-20T07:07:36;12.60;99.90
39825;DHT22;25503;52.532;13.640;2023-05-20T07:10:01;12.70;99.90
39825;DHT22;25503;52.532;13.640;2023-05-20T07:12:33;12.70;99.90
39825;DHT22;25503;52.532;13.640;2023-05-20T07:14:59;12.70;99.90
39825;DHT22;25503;52.532;13.640;2023-05-20T07:17:25;12.80;99.90
39825;DHT22;25503;52.532;13.640;2023-05-20T07:19:50;12.80;99.90
39825;DHT22;25503;52.532;13.640;2023-05-20T07:22:16;12.80;99.90
39825;DHT22;25503;52.532;13.640;2023-05-20T07:24:42;12.90;99.90
39825;DHT22;25503;52.532;13.640;2023-05-20T07:27:07;12.90;99.90
39825;DHT22;25503;52.532;13.640;2023-05-20T07:29:34;12.90;99.90
39825;DHT22;25503;52.532;13.640;2023-05-20T07:32:00;13.00;99.90
39825;DHT22;25503;52.532;13.640;2023-05-20T07:34:25;13.00;99.90
39825;DHT22;25503;52.532;13.640;2023-05-20T07:36:51;13.10;99.90
39825;DHT22;25503;52.532;13.640;2023-05-20T07:39:17;13.10;99.90
39825;DHT22;25503;52.532;13.640;2023-05-20T07:41:43;13.20;99.90
39825;DHT22;25503;52.532;13.640;2023-05-20T07:44:09;13.20;99.90
39825;DHT22;25503;52.532;13.640;2023-05-20T07:46:35;13.30;99.90
39825;DHT22;25503;52.532;13.640;2023-05-20T07:49:02;13.40;99.90
39825;DHT22;25503;52.532;13.640;2023-05-20T07:51:28;13.40;99.90
39825;DHT22;25503;52.532;13.640;2023-05-20T07:53:54;13.50;99.90
39825;DHT22;25503;52.532;13.640;2023-05-20T07:56:21;13.50;99.90
39825;DHT22;25503;52.532;13.640;2023-05-20T07:58:57;13.60;99.90
39825;DHT22;25503;52.532;13.640;2023-05-20T08:01:24;13.70;99.90
39825;DHT22;25503;52.532;13.640;2023-05-20T08:03:49;13.70;99.90
39825;DHT22;25503;52.532;13.640;2023-05-20T08:06:15;13.80;99.90
39825;DHT22;25503;52.532;13.640;2023-05-20T08:08:41;13.90;99.90
39825;DHT22;25503;52.532;13.640;2023-05-20T08:11:08;13.90;99.90
39825;DHT22;25503;52.532;13.640;2023-05-20T08:13:33;14.00;99.90
39825;DHT22;25503;52.532;13.640;2023-05-20T08:16:00;14.20;99.90
39825;DHT22;25503;52.532;13.640;2023-05-20T08:18:25;14.30;99.90
39825;DHT22;25503;52.532;13.640;2023-05-20T08:20:54;14.40;99.90
39825;DHT22;25503;52.532;13.640;2023-05-20T08:23:19;14.40;99.90
39825;DHT22;25503;52.532;13.640;2023-05-20T08:25:45;14.60;99.90
39825;DHT22;25503;52.532;13.640;2023-05-20T08:28:12;14.70;99.90
39825;DHT22;25503;52.532;13.640;2023-05-20T08:30:38;14.70;99.90
39825;DHT22;25503;52.532;13.640;2023-05-20T08:33:04;14.80;99.90
39825;DHT22;25503;52.532;13.640;2023-05-20T08:35:29;14.90;99.90
39825;DHT22;25503;52.532;13.640;2023-05-20T08:37:55;14.90;99.90
39825;DHT22;25503;52.532;13.640;2023-05-20T08:40:21;14.90;99.90
39825;DHT22;25503;52.532;13.640;2023-05-20T08:42:49;15.00;99.90
39825;DHT22;25503;52.532;13.640;2023-05-20T08:45:17;15.00;99.90
39825;DHT22;25503;52.532;13.640;2023-05-20T08:47:44;15.10;99.90
39825;DHT22;25503;52.532;13.640;2023-05-20T08:50:11;15.10;99.90
39825;DHT22;25503;52.532;13.640;2023-05-20T08:52:45;15.20;99.90
39825;DHT22;25503;52.532;13.640;2023-05-20T08:55:14;15.20;99.90
39825;DHT22;25503;52.532;13.640;2023-05-20T08:57:42;15.30;99.90
39825;DHT22;25503;52.532;13.640;2023-05-20T09:00:12;15.30;99.90
39825;DHT22;25503;52.532;13.640;2023-05-20T09:02:42;15.40;99.90
39825;DHT22;25503;52.532;13.640;2023-05-20T09:05:09;15.40;99.90
39825;DHT22;25503;52.532;13.640;2023-05-20T09:07:35;15.40;99.90
39825;DHT22;25503;52.532;13.640;2023-05-20T09:10:02;15.40;99.90
39825;DHT22;25503;52.532;13.640;2023-05-20T09:12:28;15.40;99.90
39825;DHT22;25503;52.532;13.640;2023-05-20T09:14:53;15.40;99.90
39825;DHT22;25503;52.532;13.640;2023-05-20T09:17:21;15.50;99.90
39825;DHT22;25503;52.532;13.640;2023-05-20T09:19:49;15.50;99.90
39825;DHT22;25503;52.532;13.640;2023-05-20T09:22:24;15.50;99.90
39825;DHT22;25503;52.532;13.640;2023-05-20T09:24:50;15.50;99.90
39825;DHT22;25503;52.532;13.640;2023-05-20T09:27:17;15.50;99.90
39825;DHT22;25503;52.532;13.640;2023-05-20T09:29:42;15.50;99.90
39825;DHT22;25503;52.532;13.640;2023-05-20T09:32:09;15.50;99.90
39825;DHT22;25503;52.532;13.640;2023-05-20T09:34:38;15.60;99.90
39825;DHT22;25503;52.532;13.640;2023-05-20T09:37:06;15.50;99.90
39825;DHT22;25503;52.532;13.640;2023-05-20T09:42:34;15.50;99.90
39825;DHT22;25503;52.532;13.640;2023-05-20T09:45:02;15.50;99.90
39825;DHT22;25503;52.532;13.640;2023-05-20T09:47:30;15.50;99.90
39825;DHT22;25503;52.532;13.640;2023-05-20T09:49:57;15.50;99.90
39825;DHT22;25503;52.532;13.640;2023-05-20T09:52:23;15.50;99.90
39825;DHT22;25503;52.532;13.640;2023-05-20T09:54:52;15.50;99.90
39825;DHT22;25503;52.532;13.640;2023-05-20T09:57:20;15.50;99.90
39825;DHT22;25503;52.532;13.640;2023-05-20T09:59:46;15.50;99.90
39825;DHT22;25503;52.532;13.640;2023-05-20T10:02:13;15.60;99.90
39825;DHT22;25503;52.532;13.640;2023-05-20T10:04:43;15.60;99.90
39825;DHT22;25503;52.532;13.640;2023-05-20T10:10:22;15.60;99.90
39825;DHT22;25503;52.532;13.640;2023-05-20T10:13:33;15.60;99.90
39825;DHT22;25503;52.532;13.640;2023-05-20T10:16:08;15.60;99.90
39825;DHT22;25503;52.532;13.640;2023-05-20T10:21:22;15.70;99.90
39825;DHT22;25503;52.532;13.640;2023-05-20T10:23:52;15.80;99.90
39825;DHT22;25503;52.532;13.640;2023-05-20T10:26:18;15.90;99.90
39825;DHT22;25503;52.532;13.640;2023-05-20T10:28:45;16.00;99.90
39825;DHT22;25503;52.532;13.640;2023-05-20T10:31:20;16.10;99.90
39825;DHT22;25503;52.532;13.640;2023-05-20T10:33:46;16.10;99.90
39825;DHT22;25503;52.532;13.640;2023-05-20T10:36:22;16.20;99.90
39825;DHT22;25503;52.532;13.640;2023-05-20T10:38:54;16.20;99.90
39825;DHT22;25503;52.532;13.640;2023-05-20T10:41:22;16.20;99.90
39825;DHT22;25503;52.532;13.640;2023-05-20T10:43:59;16.30;99.90
39825;DHT22;25503;52.532;13.640;2023-05-20T10:46:25;16.30;99.90
39825;DHT22;25503;52.532;13.640;2023-05-20T10:48:50;16.30;99.90
39825;DHT22;25503;52.532;13.640;2023-05-20T10:51:16;16.40;99.90
39825;DHT22;25503;52.532;13.640;2023-05-20T10:53:45;16.50;99.90
39825;DHT22;25503;52.532;13.640;2023-05-20T10:56:18;16.50;99.90
39825;DHT22;25503;52.532;13.640;2023-05-20T10:58:44;16.60;99.90
39825;DHT22;25503;52.532;13.640;2023-05-20T11:01:10;16.60;99.90
39825;DHT22;25503;52.532;13.640;2023-05-20T11:03:36;16.60;99.90
39825;DHT22;25503;52.532;13.640;2023-05-20T11:06:14;16.70;99.90
39825;DHT22;25503;52.532;13.640;2023-05-20T11:08:40;16.60;99.90
39825;DHT22;25503;52.532;13.640;2023-05-20T11:11:06;16.60;99.90
39825;DHT22;25503;52.532;13.640;2023-05-20T11:13:32;16.70;99.90
39825;DHT22;25503;52.532;13.640;2023-05-20T11:15:57;16.70;99.90
39825;DHT22;25503;52.532;13.640;2023-05-20T11:18:26;16.60;99.90
39825;DHT22;25503;52.532;13.640;2023-05-20T11:20:56;16.70;99.90
39825;DHT22;25503;52.532;13.640;2023-05-20T11:23:22;16.70;99.90
39825;DHT22;25503;52.532;13.640;2023-05-20T11:25:51;16.80;99.90
39825;DHT22;25503;52.532;13.640;2023-05-20T11:28:19;17.00;99.90
39825;DHT22;25503;52.532;13.640;2023-05-20T11:30:46;17.20;99.90
39825;DHT22;25503;52.532;13.640;2023-05-20T11:33:13;17.50;99.90
39825;DHT22;25503;52.532;13.640;2023-05-20T11:35:47;17.50;99.90
39825;DHT22;25503;52.532;13.640;2023-05-20T11:38:13;17.50;99.90
39825;DHT22;25503;52.532;13.640;2023-05-20T11:40:53;17.60;99.90
39825;DHT22;25503;52.532;13.640;2023-05-20T11:43:19;17.70;99.90
39825;DHT22;25503;52.532;13.640;2023-05-20T11:45:51;17.60;99.90
39825;DHT22;25503;52.532;13.640;2023-05-20T11:48:18;17.60;99.90
39825;DHT22;25503;52.532;13.640;2023-05-20T11:50:45;17.70;99.90
39825;DHT22;25503;52.532;13.640;2023-05-20T11:53:21;17.70;99.90
39825;DHT22;25503;52.532;13.640;2023-05-20T11:55:49;17.90;99.90
39825;DHT22;25503;52.532;13.640;2023-05-20T11:58:20;18.10;99.90
39825;DHT22;25503;52.532;13.640;2023-05-20T12:00:46;18.20;99.90
39825;DHT22;25503;52.532;13.640;2023-05-20T12:03:11;18.30;99.90
39825;DHT22;25503;52.532;13.640;2023-05-20T12:05:38;18.30;99.90
39825;DHT22;25503;52.532;13.640;2023-05-20T12:08:04;18.20;99.90
39825;DHT22;25503;52.532;13.640;2023-05-20T12:10:30;18.20;99.90
39825;DHT22;25503;52.532;13.640;2023-05-20T12:12:56;18.10;99.90
39825;DHT22;25503;52.532;13.640;2023-05-20T12:15:21;18.10;99.90
39825;DHT22;25503;52.532;13.640;2023-05-20T12:17:49;18.10;99.90
39825;DHT22;25503;52.532;13.640;2023-05-20T12:20:16;18.00;99.90
39825;DHT22;25503;52.532;13.640;2023-05-20T12:22:45;18.00;99.90
39825;DHT22;25503;52.532;13.640;2023-05-20T12:25:13;18.00;99.90
39825;DHT22;25503;52.532;13.640;2023-05-20T12:27:40;18.10;99.90
39825;DHT22;25503;52.532;13.640;2023-05-20T12:30:07;18.20;99.90
39825;DHT22;25503;52.532;13.640;2023-05-20T12:32:35;18.40;99.90
39825;DHT22;25503;52.532;13.640;2023-05-20T12:35:01;18.70;99.90
39825;DHT22;25503;52.532;13.640;2023-05-20T12:37:26;18.70;99.90
39825;DHT22;25503;52.532;13.640;2023-05-20T12:39:52;18.80;99.90
39825;DHT22;25503;52.532;13.640;2023-05-20T12:42:17;18.80;99.90
39825;DHT22;25503;52.532;13.640;2023-05-20T12:44:43;18.80;99.90
39825;DHT22;25503;52.532;13.640;2023-05-20T12:47:09;18.80;99.90
39825;DHT22;25503;52.532;13.640;2023-05-20T12:49:34;18.90;99.90
39825;DHT22;25503;52.532;13.640;2023-05-20T12:52:00;19.00;99.90
39825;DHT22;25503;52.532;13.640;2023-05-20T12:54:26;19.20;99.90
39825;DHT22;25503;52.532;13.640;2023-05-20T12:56:53;19.30;99.90
39825;DHT22;25503;52.532;13.640;2023-05-20T12:59:19;19.40;99.90
39825;DHT22;25503;52.532;13.640;2023-05-20T13:01:45;19.50;99.90
39825;DHT22;25503;52.532;13.640;2023-05-20T13:04:11;19.60;99.90
39825;DHT22;25503;52.532;13.640;2023-05-20T13:06:36;19.60;99.90
39825;DHT22;25503;52.532;13.640;2023-05-20T13:09:02;19.60;99.90
39825;DHT22;25503;52.532;13.640;2023-05-20T13:11:28;19.70;99.90
39825;DHT22;25503;52.532;13.640;2023-05-20T13:13:56;19.80;99.90
39825;DHT22;25503;52.532;13.640;2023-05-20T13:16:25;19.80;99.90
39825;DHT22;25503;52.532;13.640;2023-05-20T13:18:51;19.80;99.90
39825;DHT22;25503;52.532;13.640;2023-05-20T13:21:18;19.90;99.90
39825;DHT22;25503;52.532;13.640;2023-05-20T13:23:43;19.90;99.90
39825;DHT22;25503;52.532;13.640;2023-05-20T13:26:09;19.80;99.90
39825;DHT22;25503;52.532;13.640;2023-05-20T13:28:35;19.80;99.90
39825;DHT22;25503;52.532;13.640;2023-05-20T13:31:03;19.80;99.90
39825;DHT22;25503;52.532;13.640;2023-05-20T13:33:29;19.80;99.90
39825;DHT22;25503;52.532;13.640;2023-05-20T13:35:54;19.80;99.90
39825;DHT22;25503;52.532;13.640;2023-05-20T13:38:20;19.90;99.90
39825;DHT22;25503;52.532;13.640;2023-05-20T13:40:46;20.00;99.90
39825;DHT22;25503;52.532;13.640;2023-05-20T13:43:13;20.10;99.90
39825;DHT22;25503;52.532;13.640;2023-05-20T13:45:38;20.10;99.90
39825;DHT22;25503;52.532;13.640;2023-05-20T13:48:04;20.20;99.90
39825;DHT22;25503;52.532;13.640;2023-05-20T13:50:30;20.30;99.90
39825;DHT22;25503;52.532;13.640;2023-05-20T13:52:55;20.30;99.90
39825;DHT22;25503;52.532;13.640;2023-05-20T13:55:21;20.40;99.90
39825;DHT22;25503;52.532;13.640;2023-05-20T13:57:47;20.40;99.90
39825;DHT22;25503;52.532;13.640;2023-05-20T14:00:13;20.40;99.90
39825;DHT22;25503;52.532;13.640;2023-05-20T14:02:39;20.40;99.90
39825;DHT22;25503;52.532;13.640;2023-05-20T14:05:05;20.50;99.90
39825;DHT22;25503;52.532;13.640;2023-05-20T14:07:32;20.50;99.90
39825;DHT22;25503;52.532;13.640;2023-05-20T14:09:57;20.50;99.90
39825;DHT22;25503;52.532;13.640;2023-05-20T14:12:23;20.40;99.90
39825;DHT22;25503;52.532;13.640;2023-05-20T14:14:49;20.40;99.90
39825;DHT22;25503;52.532;13.640;2023-05-20T14:17:14;20.40;99.90
39825;DHT22;25503;52.532;13.640;2023-05-20T14:19:40;20.50;99.90
39825;DHT22;25503;52.532;13.640;2023-05-20T14:22:06;20.50;99.90
39825;DHT22;25503;52.532;13.640;2023-05-20T14:24:31;20.50;99.90
39825;DHT22;25503;52.532;13.640;2023-05-20T14:26:57;20.50;99.90
39825;DHT22;25503;52.532;13.640;2023-05-20T14:29:22;20.40;99.90
39825;DHT22;25503;52.532;13.640;2023-05-20T14:31:48;20.30;99.90
39825;DHT22;25503;52.532;13.640;2023-05-20T14:34:14;20.30;99.90
39825;DHT22;25503;52.532;13.640;2023-05-20T14:36:39;20.30;99.90
39825;DHT22;25503;52.532;13.640;2023-05-20T14:39:05;20.20;99.90
39825;DHT22;25503;52.532;13.640;2023-05-20T14:41:31;20.20;99.90
39825;DHT22;25503;52.532;13.640;2023-05-20T14:43:56;20.20;99.90
39825;DHT22;25503;52.532;13.640;2023-05-20T14:46:22;20.20;99.90
39825;DHT22;25503;52.532;13.640;2023-05-20T14:48:48;20.20;99.90
39825;DHT22;25503;52.532;13.640;2023-05-20T14:51:13;20.30;99.90
39825;DHT22;25503;52.532;13.640;2023-05-20T14:53:39;20.30;99.90
39825;DHT22;25503;52.532;13.640;2023-05-20T14:56:04;20.30;99.90
39825;DHT22;25503;52.532;13.640;2023-05-20T14:58:30;20.20;99.90
39825;DHT22;25503;52.532;13.640;2023-05-20T15:00:56;20.20;99.90
39825;DHT22;25503;52.532;13.640;2023-05-20T15:03:21;20.20;99.90
39825;DHT22;25503;52.532;13.640;2023-05-20T15:05:51;20.20;99.90
39825;DHT22;25503;52.532;13.640;2023-05-20T15:08:17;20.30;99.90
39825;DHT22;25503;52.532;13.640;2023-05-20T15:10:43;20.30;99.90
39825;DHT22;25503;52.532;13.640;2023-05-20T15:13:08;20.30;99.90
39825;DHT22;25503;52.532;13.640;2023-05-20T15:15:34;20.30;99.90
39825;DHT22;25503;52.532;13.640;2023-05-20T15:18:00;20.30;99.90
39825;DHT22;25503;52.532;13.640;2023-05-20T15:20:25;20.30;99.90
39825;DHT22;25503;52.532;13.640;2023-05-20T15:22:51;20.30;99.90